KEST/EST METAR and TAF weather

Enter ICAO airport designator
Station Type Date Time Source
KEST METAR 2020/10/20 17:13 UTC NOAA

KEST 201713Z AUTO 14013KT 2 1/2SM BR OVC009 01/00 A3008 RMK AO2 CIG 007V011 T00060000


Station Type Date Time Source
KEST Decoded METAR 2020/10/20 17:13 UTC NOAA

ESTHERVILLE MUNICIPAL AIRPORT , IA, United States (KEST) 43-24N 94-45W 401M
Oct 20, 2020 - 01:13 PM EDT / 2020.10.20 1713 UTC
Wind: from the SE (140 degrees) at 15 MPH (13 KT):0
Visibility: 2 1/2 mile(s):0
Sky conditions: overcast
Weather: mist
Temperature: 33.1 F (0.6 C)
Windchill: 23 F (-5 C):1
Dew Point: 32.0 F (0.0 C)
Relative Humidity: 95%
Pressure (altimeter): 30.08 in. Hg (1018 hPa)
ob: KEST 201713Z AUTO 14013KT 2 1/2SM BR OVC009 01/00 A3008 RMK AO2 CIG 007V011 T00060000
cycle: 17

Station Type Date Time Source
KEST TAF UTC NOAA

Error!

Example: see airport list